Time;durP1;ratioP1;P1;durP2;ratioP2;P2;SDS_P1;SDS_P2;PMS_P1;PMS_P2;Temp;Humidity;BMP_temperature;BMP_pressure;BME280_temperature;BME280_humidity;BME280_pressure;Samples;Min_cycle;Max_cycle;Signal;HPM_P1;HPM_P2
2023/08/09 00:00:49;;;;;;;3.72;1.63;;;17.00;99.90;;;;;;6194224;23;20036;-69
2023/08/09 00:03:15;;;;;;;3.03;1.80;;;17.00;99.90;;;;;;6194766;23;20301;-69
2023/08/09 00:05:41;;;;;;;3.58;1.73;;;17.00;99.90;;;;;;6193651;23;20015;-70
2023/08/09 00:08:06;;;;;;;2.80;1.88;;;17.00;99.90;;;;;;6192558;23;20004;-70
2023/08/09 00:10:33;;;;;;;5.47;1.90;;;16.90;99.90;;;;;;6197074;23;20000;-70
2023/08/09 00:12:59;;;;;;;3.65;1.50;;;16.80;99.90;;;;;;6169726;23;20146;-70
2023/08/09 00:15:25;;;;;;;5.13;1.77;;;16.80;99.90;;;;;;6196800;23;20053;-70
2023/08/09 00:17:51;;;;;;;3.42;1.40;;;16.70;99.90;;;;;;6196266;23;20615;-70
2023/08/09 00:20:16;;;;;;;4.63;1.52;;;16.60;99.90;;;;;;6196369;23;20015;-70
2023/08/09 00:22:42;;;;;;;3.25;1.55;;;16.50;99.90;;;;;;6196696;23;20419;-70
2023/08/09 00:25:10;;;;;;;3.38;1.70;;;16.40;99.90;;;;;;6165665;23;20348;-69
2023/08/09 00:27:36;;;;;;;4.75;1.70;;;16.30;99.90;;;;;;6192936;23;20028;-70
2023/08/09 00:30:03;;;;;;;4.18;1.70;;;16.30;99.90;;;;;;6195655;23;20515;-70
2023/08/09 00:32:29;;;;;;;3.20;1.90;;;16.30;99.90;;;;;;6193829;23;20302;-70
2023/08/09 00:34:54;;;;;;;4.82;1.70;;;16.20;99.90;;;;;;6195329;23;20029;-70
2023/08/09 00:37:21;;;;;;;4.15;1.70;;;16.20;99.90;;;;;;6194994;23;20008;-70
2023/08/09 00:39:46;;;;;;;3.10;1.50;;;16.20;99.90;;;;;;6196751;23;20406;-70
2023/08/09 00:42:12;;;;;;;3.60;1.70;;;16.20;99.90;;;;;;6196279;23;20009;-70
2023/08/09 00:44:38;;;;;;;4.00;1.85;;;16.10;99.90;;;;;;6168736;23;20009;-70
2023/08/09 00:47:07;;;;;;;2.33;1.67;;;16.10;99.90;;;;;;6196438;23;20001;-70
2023/08/09 00:49:33;;;;;;;3.53;1.40;;;16.00;99.90;;;;;;6194160;23;20024;-70
2023/08/09 00:51:59;;;;;;;3.28;1.30;;;15.90;99.90;;;;;;6196072;23;20401;-70
2023/08/09 00:54:25;;;;;;;1.70;1.40;;;15.80;99.90;;;;;;6195467;23;20016;-70
2023/08/09 00:56:51;;;;;;;2.20;1.40;;;15.70;99.90;;;;;;6195349;23;20035;-70
2023/08/09 00:59:16;;;;;;;2.65;1.60;;;15.60;99.90;;;;;;6194403;23;20079;-70
2023/08/09 01:01:42;;;;;;;2.25;1.50;;;15.60;99.90;;;;;;6194208;23;20340;-70
2023/08/09 01:04:08;;;;;;;2.85;1.33;;;15.50;99.90;;;;;;6190227;23;20113;-70
2023/08/09 01:06:56;;;;;;;4.85;1.58;;;15.50;99.90;;;;;;6192445;23;20009;-70
2023/08/09 01:09:40;;;;;;;2.80;1.45;;;15.30;99.90;;;;;;6194961;23;20035;-70
2023/08/09 01:12:14;;;;;;;5.57;1.50;;;15.30;99.90;;;;;;6195889;23;20042;-70
2023/08/09 01:14:46;;;;;;;2.10;1.75;;;15.30;99.90;;;;;;6195070;23;20062;-70
2023/08/09 01:17:15;;;;;;;2.38;1.75;;;15.20;99.90;;;;;;6197145;23;20439;-70
2023/08/09 01:19:45;;;;;;;4.70;1.88;;;15.20;99.90;;;;;;6194183;23;20012;-70
2023/08/09 01:22:16;;;;;;;3.40;1.48;;;15.10;99.90;;;;;;6194110;23;20042;-70
2023/08/09 01:24:43;;;;;;;2.13;1.55;;;15.10;99.90;;;;;;6168811;23;20046;-70
2023/08/09 01:27:09;;;;;;;3.67;1.60;;;15.10;99.90;;;;;;6197110;23;20008;-70
2023/08/09 01:29:35;;;;;;;2.35;1.73;;;15.00;99.90;;;;;;6168584;23;20472;-70
2023/08/09 01:32:01;;;;;;;6.32;1.60;;;15.00;99.90;;;;;;6196438;23;20036;-70
2023/08/09 01:34:27;;;;;;;3.42;1.60;;;15.00;99.90;;;;;;6189341;23;20572;-70
2023/08/09 01:36:57;;;;;;;2.08;1.58;;;14.90;99.90;;;;;;6163822;23;20091;-70
2023/08/09 01:39:27;;;;;;;2.25;1.48;;;14.90;99.90;;;;;;6191322;23;20372;-69
2023/08/09 01:41:53;;;;;;;7.53;1.30;;;14.80;99.90;;;;;;6193409;23;20074;-70
2023/08/09 01:44:20;;;;;;;3.50;1.40;;;14.80;99.90;;;;;;6194485;23;20020;-70
2023/08/09 01:46:46;;;;;;;2.97;1.63;;;14.80;99.90;;;;;;6196228;23;20059;-70
2023/08/09 01:49:14;;;;;;;3.17;2.00;;;14.70;99.90;;;;;;6190128;23;20085;-70
2023/08/09 01:51:41;;;;;;;1.58;1.48;;;14.60;99.90;;;;;;6192903;23;20001;-70
2023/08/09 01:54:08;;;;;;;5.95;1.40;;;14.60;99.90;;;;;;6192279;23;20005;-70
2023/08/09 01:56:35;;;;;;;2.78;1.48;;;14.60;99.90;;;;;;6192697;23;19997;-70
2023/08/09 01:59:01;;;;;;;2.13;1.50;;;14.60;99.90;;;;;;6189436;23;20071;-70
2023/08/09 02:01:27;;;;;;;2.70;1.60;;;14.60;99.90;;;;;;6163646;23;20075;-69
2023/08/09 02:03:53;;;;;;;1.67;1.45;;;14.60;99.90;;;;;;6191318;23;20067;-70
2023/08/09 02:06:19;;;;;;;2.05;1.58;;;14.50;99.90;;;;;;6166977;23;20008;-70
2023/08/09 02:08:45;;;;;;;3.97;1.77;;;14.50;99.90;;;;;;6194526;23;20089;-69
2023/08/09 02:11:10;;;;;;;2.45;1.48;;;14.40;99.90;;;;;;6196085;23;20072;-71
2023/08/09 02:13:36;;;;;;;3.90;1.30;;;14.40;99.90;;;;;;6195966;23;20357;-70
2023/08/09 02:16:04;;;;;;;2.13;1.52;;;14.30;99.90;;;;;;6197241;23;20097;-70
2023/08/09 02:18:30;;;;;;;1.60;1.50;;;14.30;99.90;;;;;;6194886;23;20063;-70
2023/08/09 02:20:59;;;;;;;2.30;1.50;;;14.20;99.90;;;;;;6196338;23;20107;-70
2023/08/09 02:23:25;;;;;;;1.70;1.40;;;14.20;99.90;;;;;;6196286;23;20380;-69
2023/08/09 02:25:53;;;;;;;1.50;1.15;;;14.10;99.90;;;;;;6196067;23;20080;-69
2023/08/09 02:28:18;;;;;;;2.28;1.60;;;14.10;99.90;;;;;;6195474;23;20074;-70
2023/08/09 02:30:45;;;;;;;2.13;1.58;;;14.00;99.90;;;;;;6193918;23;20433;-70
2023/08/09 02:33:11;;;;;;;1.95;1.20;;;14.00;99.90;;;;;;6195975;23;20007;-70
2023/08/09 02:35:57;;;;;;;4.55;1.38;;;13.90;99.90;;;;;;6196717;23;20008;-70
2023/08/09 02:38:25;;;;;;;1.55;1.10;;;13.90;99.90;;;;;;6196627;23;20021;-69
2023/08/09 02:40:51;;;;;;;3.25;1.02;;;13.80;99.90;;;;;;6196649;23;20031;-70
2023/08/09 02:43:23;;;;;;;3.50;1.08;;;13.80;99.90;;;;;;6197495;23;20020;-70
2023/08/09 02:45:50;;;;;;;2.25;1.13;;;13.80;99.90;;;;;;6166795;23;20138;-70
2023/08/09 02:48:16;;;;;;;2.10;1.40;;;13.80;99.90;;;;;;6193401;23;20012;-70
2023/08/09 02:50:43;;;;;;;2.97;2.20;;;13.80;99.90;;;;;;6192097;23;20012;-70
2023/08/09 02:53:09;;;;;;;3.63;2.38;;;13.80;99.90;;;;;;6193575;23;20025;-71
2023/08/09 02:55:36;;;;;;;6.07;3.30;;;13.80;99.90;;;;;;6196956;23;20642;-71
2023/08/09 02:58:03;;;;;;;3.83;3.33;;;13.80;99.90;;;;;;6197706;23;20441;-70
2023/08/09 03:00:30;;;;;;;4.78;3.55;;;13.80;99.90;;;;;;6195627;23;20004;-70
2023/08/09 03:02:56;;;;;;;3.67;2.80;;;13.80;99.90;;;;;;6196999;23;20164;-70
2023/08/09 03:05:21;;;;;;;3.38;3.05;;;13.90;99.90;;;;;;6195938;23;20309;-70
2023/08/09 03:07:47;;;;;;;2.95;2.63;;;13.80;99.90;;;;;;6197248;23;20425;-71
2023/08/09 03:10:13;;;;;;;4.20;3.45;;;13.90;99.90;;;;;;6198102;23;20019;-71
2023/08/09 03:12:38;;;;;;;3.53;2.90;;;13.80;99.90;;;;;;6196636;23;20598;-71
2023/08/09 03:15:05;;;;;;;5.40;3.08;;;13.80;99.90;;;;;;6197381;23;20008;-71
2023/08/09 03:17:31;;;;;;;5.15;2.50;;;13.80;99.90;;;;;;6170265;23;20009;-70
2023/08/09 03:19:57;;;;;;;2.72;2.45;;;13.70;99.90;;;;;;6196208;23;20441;-70
2023/08/09 03:22:23;;;;;;;1.90;1.70;;;13.70;99.90;;;;;;6197054;23;20027;-70
2023/08/09 03:24:50;;;;;;;1.73;1.55;;;13.60;99.90;;;;;;6169701;23;20012;-70
2023/08/09 03:27:16;;;;;;;1.67;1.42;;;13.60;99.90;;;;;;6196129;23;20111;-70
2023/08/09 03:29:42;;;;;;;1.33;1.20;;;13.50;99.90;;;;;;6195671;23;20568;-69
2023/08/09 03:32:08;;;;;;;1.55;1.27;;;13.50;99.90;;;;;;6196568;23;20004;-70
2023/08/09 03:34:34;;;;;;;2.33;1.70;;;13.40;99.90;;;;;;6195737;23;20079;-68
2023/08/09 03:37:00;;;;;;;1.70;1.50;;;13.40;99.90;;;;;;6197102;23;20404;-71
2023/08/09 03:39:26;;;;;;;1.85;1.52;;;13.40;99.90;;;;;;6196665;23;20452;-71
2023/08/09 03:41:52;;;;;;;1.77;1.40;;;13.30;99.90;;;;;;6197144;23;20160;-71
2023/08/09 03:44:17;;;;;;;2.30;1.90;;;13.30;99.90;;;;;;6196950;23;20023;-70
2023/08/09 03:46:43;;;;;;;3.92;2.40;;;13.30;99.90;;;;;;6197703;23;20008;-70
2023/08/09 03:49:09;;;;;;;2.70;2.15;;;13.20;99.90;;;;;;6195882;23;20012;-70
2023/08/09 03:51:34;;;;;;;3.85;2.80;;;13.20;99.90;;;;;;6169998;23;20036;-71
2023/08/09 03:54:00;;;;;;;5.13;2.97;;;13.30;99.90;;;;;;6197666;23;20460;-70
2023/08/09 03:56:27;;;;;;;3.35;2.80;;;13.20;99.90;;;;;;6196940;23;20072;-70
2023/08/09 03:58:52;;;;;;;5.70;3.22;;;13.20;99.90;;;;;;6197028;23;20016;-70
2023/08/09 04:01:18;;;;;;;6.18;3.88;;;13.30;99.90;;;;;;6196709;23;20104;-70
2023/08/09 04:03:44;;;;;;;9.75;6.15;;;13.30;99.90;;;;;;6195098;23;20012;-70
2023/08/09 04:06:10;;;;;;;10.15;8.07;;;13.30;99.90;;;;;;6171197;23;20092;-70
2023/08/09 04:08:37;;;;;;;16.63;12.07;;;13.30;99.90;;;;;;6197421;23;20004;-70
2023/08/09 04:11:04;;;;;;;16.75;11.98;;;13.30;99.90;;;;;;6194854;23;20009;-70
2023/08/09 04:13:30;;;;;;;13.40;11.05;;;13.30;99.90;;;;;;6196667;23;20084;-70
2023/08/09 04:15:56;;;;;;;12.85;8.63;;;13.30;99.90;;;;;;6191792;23;20054;-70
2023/08/09 04:18:21;;;;;;;11.48;7.78;;;13.30;99.90;;;;;;6192208;23;20088;-71
2023/08/09 04:20:48;;;;;;;8.60;6.30;;;13.30;99.90;;;;;;6191984;23;20310;-71
2023/08/09 04:23:13;;;;;;;6.45;5.25;;;13.30;99.90;;;;;;6193527;23;20059;-71
2023/08/09 04:25:39;;;;;;;10.13;5.57;;;13.30;99.90;;;;;;6169364;23;20012;-71
2023/08/09 04:28:05;;;;;;;7.10;4.75;;;13.30;99.90;;;;;;6170009;23;20011;-70
2023/08/09 04:30:32;;;;;;;7.50;5.18;;;13.30;99.90;;;;;;6194840;23;20229;-71
2023/08/09 04:33:00;;;;;;;9.07;5.18;;;13.30;99.90;;;;;;6192158;23;20005;-71
2023/08/09 04:35:26;;;;;;;9.00;6.00;;;13.40;99.90;;;;;;6192515;23;20436;-71
2023/08/09 04:37:51;;;;;;;12.10;6.35;;;13.40;99.90;;;;;;6195467;23;20047;-70
2023/08/09 04:40:17;;;;;;;11.45;6.45;;;13.50;99.90;;;;;;6196967;23;20008;-71
2023/08/09 04:42:43;;;;;;;16.23;7.30;;;13.60;99.90;;;;;;6196907;23;20017;-70
2023/08/09 04:45:10;;;;;;;15.32;7.30;;;13.70;99.90;;;;;;6195530;23;20180;-70
2023/08/09 04:47:36;;;;;;;12.32;7.57;;;13.80;99.90;;;;;;6169680;23;20331;-71
2023/08/09 04:50:05;;;;;;;12.20;7.07;;;13.80;99.90;;;;;;6194975;23;20070;-69
2023/08/09 04:52:33;;;;;;;15.70;8.13;;;13.90;99.90;;;;;;6197149;23;20417;-70
2023/08/09 04:54:59;;;;;;;15.35;8.07;;;13.90;99.90;;;;;;6196873;23;20035;-70
2023/08/09 04:57:26;;;;;;;11.52;7.55;;;14.00;99.90;;;;;;6196674;23;20005;-70
2023/08/09 04:59:51;;;;;;;14.45;8.10;;;14.10;99.90;;;;;;6196224;23;20016;-70
2023/08/09 05:02:17;;;;;;;14.75;8.18;;;14.10;99.90;;;;;;6193184;23;20008;-70
2023/08/09 05:04:43;;;;;;;14.80;8.45;;;14.20;99.90;;;;;;6190993;23;20030;-70
2023/08/09 05:07:09;;;;;;;15.90;8.50;;;14.20;99.90;;;;;;6195421;23;20004;-70
2023/08/09 05:09:35;;;;;;;15.00;8.05;;;14.30;99.90;;;;;;6194853;23;20012;-70
2023/08/09 05:12:00;;;;;;;15.18;8.15;;;14.30;99.90;;;;;;6165783;23;20392;-70
2023/08/09 05:14:26;;;;;;;12.55;7.53;;;14.40;99.90;;;;;;6192041;23;20068;-70
2023/08/09 05:16:53;;;;;;;13.82;8.18;;;14.50;99.90;;;;;;6195283;23;20004;-70
2023/08/09 05:19:19;;;;;;;19.70;8.75;;;14.60;99.90;;;;;;6194905;23;20070;-70
2023/08/09 05:21:45;;;;;;;14.02;8.23;;;14.70;99.90;;;;;;6193592;23;20012;-70
2023/08/09 05:24:10;;;;;;;12.45;7.60;;;14.70;99.90;;;;;;6191798;23;20005;-70
2023/08/09 05:26:37;;;;;;;13.10;8.20;;;14.80;99.90;;;;;;6194581;23;20467;-70
2023/08/09 05:29:02;;;;;;;12.48;8.07;;;14.80;99.90;;;;;;6195247;23;20008;-70
2023/08/09 05:31:28;;;;;;;14.48;8.02;;;14.90;99.90;;;;;;6195778;23;20009;-70
2023/08/09 05:33:54;;;;;;;14.68;8.43;;;15.00;99.90;;;;;;6194566;23;20353;-70
2023/08/09 05:36:19;;;;;;;16.17;8.15;;;15.00;99.90;;;;;;6195351;23;20005;-70
2023/08/09 05:38:45;;;;;;;13.27;7.95;;;15.10;99.90;;;;;;6194527;23;20078;-70
2023/08/09 05:41:12;;;;;;;12.60;6.95;;;15.30;99.90;;;;;;6194865;23;20001;-70
2023/08/09 05:43:37;;;;;;;11.50;7.07;;;15.30;99.90;;;;;;6191897;23;20024;-70
2023/08/09 05:46:03;;;;;;;13.18;7.95;;;15.30;99.90;;;;;;6168117;23;20546;-70
2023/08/09 05:48:29;;;;;;;14.48;8.88;;;15.40;99.90;;;;;;6171582;23;20470;-70
2023/08/09 05:50:55;;;;;;;13.82;8.82;;;15.40;99.90;;;;;;6169653;23;20035;-70
2023/08/09 05:53:21;;;;;;;14.32;8.50;;;15.40;99.90;;;;;;6194825;23;20020;-69
2023/08/09 05:55:47;;;;;;;14.32;8.07;;;15.60;99.90;;;;;;6193355;23;20027;-70
2023/08/09 05:58:14;;;;;;;12.13;7.55;;;15.80;99.90;;;;;;6194367;23;20016;-70
2023/08/09 06:00:39;;;;;;;11.48;7.18;;;15.80;99.90;;;;;;6191062;23;20051;-70
2023/08/09 06:03:05;;;;;;;10.93;6.93;;;15.80;99.90;;;;;;6193344;23;20004;-70
2023/08/09 06:05:31;;;;;;;10.30;6.65;;;15.90;99.90;;;;;;6192301;23;20015;-70
2023/08/09 06:07:56;;;;;;;12.07;8.00;;;16.00;99.90;;;;;;6192039;23;20075;-70
2023/08/09 06:10:23;;;;;;;12.40;8.05;;;16.20;99.90;;;;;;6194301;23;20336;-70
2023/08/09 06:12:50;;;;;;;9.77;6.60;;;16.30;99.90;;;;;;6196709;23;20009;-70
2023/08/09 06:15:16;;;;;;;10.98;6.60;;;16.40;99.90;;;;;;6195848;23;20080;-70
2023/08/09 06:17:42;;;;;;;9.80;6.50;;;16.40;99.90;;;;;;6196277;23;20145;-70
2023/08/09 06:20:08;;;;;;;12.48;6.47;;;16.40;99.90;;;;;;6194529;23;20047;-70
2023/08/09 06:22:34;;;;;;;9.63;7.05;;;16.50;99.90;;;;;;6193985;23;20012;-70
2023/08/09 06:25:00;;;;;;;10.88;7.10;;;16.30;99.90;;;;;;6189836;23;20434;-70
2023/08/09 06:27:25;;;;;;;9.07;6.53;;;16.30;99.90;;;;;;6186601;23;20367;-70
2023/08/09 06:29:51;;;;;;;9.05;6.57;;;16.50;99.90;;;;;;6186896;23;20082;-71
2023/08/09 06:32:17;;;;;;;11.00;6.22;;;16.50;99.90;;;;;;6189707;23;20092;-70
2023/08/09 06:34:42;;;;;;;9.25;6.65;;;16.50;99.90;;;;;;6188544;23;20011;-70
2023/08/09 06:37:08;;;;;;;9.30;6.63;;;16.50;99.90;;;;;;6190886;23;20071;-71
2023/08/09 06:39:34;;;;;;;7.93;5.80;;;16.50;99.90;;;;;;6189690;23;20021;-71
2023/08/09 06:42:00;;;;;;;7.93;5.80;;;16.50;99.90;;;;;;6189873;23;20478;-71
2023/08/09 06:44:26;;;;;;;8.10;5.63;;;16.80;99.90;;;;;;6189484;23;20001;-71
2023/08/09 06:46:53;;;;;;;6.95;4.97;;;17.20;99.90;;;;;;6194212;23;20358;-71
2023/08/09 06:49:21;;;;;;;6.68;4.80;;;17.60;99.90;;;;;;6193629;23;20004;-72
2023/08/09 06:51:47;;;;;;;6.60;5.00;;;17.70;99.90;;;;;;6197399;23;20027;-71
2023/08/09 06:54:13;;;;;;;5.65;4.40;;;17.90;99.90;;;;;;6170032;23;20016;-71
2023/08/09 06:56:39;;;;;;;6.90;4.78;;;18.10;99.90;;;;;;6196819;23;20004;-71
2023/08/09 06:59:04;;;;;;;9.27;6.85;;;18.10;99.90;;;;;;6168934;23;20031;-71
2023/08/09 07:01:30;;;;;;;11.15;6.07;;;18.10;99.90;;;;;;6194854;23;20372;-71
2023/08/09 07:03:56;;;;;;;7.70;4.32;;;18.10;99.90;;;;;;6166349;23;20005;-71
2023/08/09 07:06:23;;;;;;;5.60;4.35;;;18.00;99.90;;;;;;6195879;23;20225;-71
2023/08/09 07:08:48;;;;;;;5.88;4.05;;;18.00;99.90;;;;;;6169690;23;20019;-71
2023/08/09 07:11:14;;;;;;;5.13;4.20;;;18.00;99.90;;;;;;6193367;23;20083;-71
2023/08/09 07:13:40;;;;;;;5.80;4.43;;;18.40;99.90;;;;;;6193161;23;20086;-71
2023/08/09 07:16:06;;;;;;;6.25;4.18;;;18.80;99.90;;;;;;6192535;23;20028;-71
2023/08/09 07:18:33;;;;;;;4.18;3.78;;;19.20;99.90;;;;;;6168912;23;20035;-71
2023/08/09 07:20:58;;;;;;;5.38;4.00;;;19.70;99.90;;;;;;6191851;23;20160;-71
2023/08/09 07:23:25;;;;;;;6.18;4.32;;;19.90;99.90;;;;;;6190929;23;20100;-72
2023/08/09 07:25:51;;;;;;;5.47;4.05;;;20.20;99.90;;;;;;6188770;23;20051;-72
2023/08/09 07:28:17;;;;;;;5.95;3.50;;;20.50;99.90;;;;;;6188709;23;20001;-72
2023/08/09 07:30:42;;;;;;;5.68;4.00;;;20.70;99.90;;;;;;6187734;23;20012;-71
2023/08/09 07:33:08;;;;;;;5.20;3.63;;;20.90;99.90;;;;;;6192722;23;20004;-72
2023/08/09 07:35:33;;;;;;;4.32;3.58;;;20.90;99.90;;;;;;6195608;23;20019;-73
2023/08/09 07:37:59;;;;;;;6.07;3.35;;;21.10;99.90;;;;;;6190767;23;20066;-73
2023/08/09 07:40:25;;;;;;;4.22;3.35;;;21.20;99.90;;;;;;6162172;23;20396;-75
2023/08/09 07:42:52;;;;;;;4.93;3.20;;;21.40;99.90;;;;;;6162686;23;20474;-74
2023/08/09 07:45:18;;;;;;;4.18;2.85;;;21.50;99.90;;;;;;6189346;23;20610;-73
2023/08/09 07:47:44;;;;;;;5.90;3.55;;;22.00;99.90;;;;;;6187466;23;20054;-75
2023/08/09 07:50:10;;;;;;;3.63;3.00;;;22.30;99.90;;;;;;6160272;23;20019;-74
2023/08/09 07:52:36;;;;;;;4.13;2.88;;;22.50;99.90;;;;;;6164354;23;20005;-75
2023/08/09 07:55:04;;;;;;;3.10;2.72;;;22.80;99.90;;;;;;6170911;23;20040;-75
2023/08/09 07:57:30;;;;;;;5.22;3.03;;;23.20;99.90;;;;;;6167867;23;20051;-74
2023/08/09 07:59:56;;;;;;;3.13;2.20;;;23.70;99.90;;;;;;6163876;23;20456;-72
2023/08/09 08:02:21;;;;;;;4.03;2.58;;;24.00;99.90;;;;;;6194977;23;20013;-72
2023/08/09 08:04:47;;;;;;;3.80;2.90;;;24.10;99.90;;;;;;6195599;23;20053;-76
2023/08/09 08:07:14;;;;;;;3.10;2.65;;;24.20;99.90;;;;;;6194247;23;20000;-73
2023/08/09 08:09:45;;;;;;;5.22;3.53;;;24.30;99.90;;;;;;6196147;23;20444;-72
2023/08/09 08:12:11;;;;;;;5.38;3.30;;;24.10;99.90;;;;;;6194379;23;20106;-72
2023/08/09 08:14:37;;;;;;;5.03;3.45;;;24.40;99.90;;;;;;6193109;23;20091;-72
2023/08/09 08:17:03;;;;;;;3.33;3.03;;;24.90;99.90;;;;;;6190868;23;20120;-73
2023/08/09 08:19:29;;;;;;;3.65;3.10;;;25.20;99.90;;;;;;6190267;23;20036;-73
2023/08/09 08:21:54;;;;;;;2.20;2.00;;;25.70;99.90;;;;;;6193555;23;20337;-74
2023/08/09 08:24:20;;;;;;;2.58;2.05;;;26.30;99.20;;;;;;6189918;23;20384;-74
2023/08/09 08:26:45;;;;;;;3.38;2.08;;;26.60;98.30;;;;;;6161496;23;20518;-73
2023/08/09 08:29:12;;;;;;;3.80;2.28;;;26.80;95.10;;;;;;6161194;23;20012;-76
2023/08/09 08:31:38;;;;;;;1.70;1.30;;;26.80;98.40;;;;;;6161907;23;20062;-71
2023/08/09 08:34:05;;;;;;;1.55;1.20;;;26.40;91.00;;;;;;6186261;23;20008;-69
2023/08/09 08:36:30;;;;;;;3.58;1.75;;;26.00;95.60;;;;;;6163064;23;20009;-70
2023/08/09 08:38:57;;;;;;;2.30;1.45;;;25.90;99.10;;;;;;6189834;23;20025;-70
2023/08/09 08:41:23;;;;;;;1.83;1.27;;;25.90;92.70;;;;;;6192520;23;20000;-70
2023/08/09 08:43:49;;;;;;;2.15;1.00;;;25.90;91.50;;;;;;6192213;23;20016;-70
2023/08/09 08:46:16;;;;;;;2.47;1.10;;;26.90;95.90;;;;;;6191788;23;20087;-70
2023/08/09 08:48:47;;;;;;;3.42;0.85;;;28.60;92.80;;;;;;6164358;23;20400;-71
2023/08/09 08:51:13;;;;;;;2.30;0.95;;;31.00;73.50;;;;;;6191144;23;20036;-71
2023/08/09 08:53:40;;;;;;;1.95;0.73;;;32.80;68.80;;;;;;6164463;23;20029;-71
2023/08/09 08:56:07;;;;;;;2.65;1.17;;;33.90;62.00;;;;;;6191826;23;20004;-70
2023/08/09 08:58:33;;;;;;;4.13;0.60;;;35.00;54.80;;;;;;6192808;23;20063;-71
2023/08/09 09:00:59;;;;;;;2.72;0.65;;;35.50;51.00;;;;;;6191153;23;20370;-71
2023/08/09 09:03:25;;;;;;;1.40;0.75;;;35.30;51.70;;;;;;6191817;23;20018;-71
2023/08/09 09:05:50;;;;;;;1.92;0.60;;;35.00;50.80;;;;;;6188374;23;20252;-71
2023/08/09 09:08:16;;;;;;;1.85;1.00;;;35.30;51.50;;;;;;6186115;23;20078;-70
2023/08/09 09:10:46;;;;;;;1.20;0.80;;;36.50;47.60;;;;;;6159911;23;20294;-72
2023/08/09 09:13:28;;;;;;;1.77;0.75;;;38.00;44.40;;;;;;6182780;23;20607;-72
2023/08/09 09:15:55;;;;;;;4.00;0.98;;;39.60;42.60;;;;;;6180274;23;20009;-72
2023/08/09 09:18:22;;;;;;;2.30;0.77;;;40.50;41.10;;;;;;6186604;23;20054;-72
2023/08/09 09:20:49;;;;;;;2.50;0.60;;;40.90;40.80;;;;;;6181150;23;20041;-72
2023/08/09 09:23:30;;;;;;;1.48;0.52;;;40.90;39.10;;;;;;6180854;23;20341;-72
2023/08/09 09:26:09;;;;;;;0.95;0.57;;;41.20;38.30;;;;;;6182629;23;20007;-72
2023/08/09 09:28:44;;;;;;;0.60;0.50;;;41.00;36.30;;;;;;6186564;23;20008;-72
2023/08/09 09:31:12;;;;;;;1.10;0.60;;;40.60;35.30;;;;;;6180537;23;20505;-72
2023/08/09 09:33:39;;;;;;;2.55;0.80;;;40.40;39.00;;;;;;6184034;23;20104;-72
2023/08/09 09:36:11;;;;;;;1.00;0.50;;;39.80;39.80;;;;;;6181929;23;20079;-72
2023/08/09 09:38:37;;;;;;;1.45;0.40;;;39.10;37.30;;;;;;6182840;23;20198;-71
2023/08/09 09:41:03;;;;;;;2.17;0.47;;;38.30;37.60;;;;;;6179849;23;20051;-71
2023/08/09 09:43:33;;;;;;;1.70;0.63;;;37.80;38.60;;;;;;6180805;23;20099;-71
2023/08/09 09:45:59;;;;;;;;;;;38.50;39.40;;;;;;6178022;23;19996;-72
2023/08/09 09:48:26;;;;;;;3.67;0.50;;;39.40;36.40;;;;;;6186277;23;20363;-72
2023/08/09 09:50:52;;;;;;;1.25;0.50;;;40.90;34.80;;;;;;6186257;23;20012;-71
2023/08/09 09:53:19;;;;;;;1.23;0.60;;;41.70;32.30;;;;;;6184673;23;20346;-71
2023/08/09 09:55:45;;;;;;;0.77;0.50;;;42.80;33.70;;;;;;6190107;23;20313;-71
2023/08/09 09:58:14;;;;;;;2.75;0.55;;;43.70;31.20;;;;;;6161393;23;20754;-71
2023/08/09 10:00:49;;;;;;;2.13;0.77;;;43.80;31.40;;;;;;6161022;23;20009;-71
2023/08/09 10:03:17;;;;;;;2.42;0.45;;;43.80;33.10;;;;;;6186929;23;20005;-71
2023/08/09 10:05:45;;;;;;;2.30;0.40;;;44.20;31.70;;;;;;6185823;23;20008;-71
2023/08/09 10:08:12;;;;;;;1.33;0.55;;;44.50;30.40;;;;;;6186837;23;20083;-71
2023/08/09 10:10:41;;;;;;;0.50;0.38;;;44.70;29.90;;;;;;6185375;23;20412;-71
2023/08/09 10:13:09;;;;;;;2.45;0.50;;;44.60;30.10;;;;;;6188213;23;20516;-71
2023/08/09 10:15:36;;;;;;;1.42;0.65;;;44.10;29.90;;;;;;6187426;23;20460;-71
2023/08/09 10:18:39;;;;;;;1.02;0.52;;;44.20;30.20;;;;;;6183287;23;20111;-71
2023/08/09 10:21:06;;;;;;;1.00;0.57;;;44.50;33.60;;;;;;6143509;23;20353;-71
2023/08/09 10:23:32;;;;;;;3.15;0.77;;;44.50;31.50;;;;;;6181805;23;20149;-71
2023/08/09 10:25:58;;;;;;;2.22;0.50;;;44.00;28.90;;;;;;6178967;23;20501;-71
2023/08/09 10:28:44;;;;;;;1.17;0.57;;;43.10;29.20;;;;;;6185460;23;20356;-71
2023/08/09 10:31:10;;;;;;;1.08;0.50;;;40.90;30.70;;;;;;6161483;23;20160;-71
2023/08/09 10:33:35;;;;;;;1.20;0.60;;;39.80;33.90;;;;;;6161464;23;20024;-70
2023/08/09 10:36:01;;;;;;;2.58;0.63;;;40.60;33.10;;;;;;6192713;23;20011;-71
2023/08/09 10:38:30;;;;;;;1.05;0.60;;;40.70;32.50;;;;;;6191551;23;20012;-71
2023/08/09 10:40:55;;;;;;;3.03;0.60;;;39.50;33.60;;;;;;6189881;23;20005;-71
2023/08/09 10:43:24;;;;;;;0.82;0.45;;;38.80;35.30;;;;;;6184574;23;20162;-71
2023/08/09 10:45:53;;;;;;;1.13;0.50;;;38.70;36.00;;;;;;6187555;23;20009;-71
2023/08/09 10:48:27;;;;;;;1.02;0.50;;;40.20;36.70;;;;;;6191282;23;20095;-71
2023/08/09 10:51:07;;;;;;;1.42;0.73;;;41.30;34.40;;;;;;6192446;23;20142;-71
2023/08/09 10:53:56;;;;;;;1.90;0.50;;;41.30;32.50;;;;;;6194973;23;20011;-71
2023/08/09 10:56:34;;;;;;;2.25;0.77;;;40.10;33.40;;;;;;6168391;23;20118;-71
2023/08/09 10:59:27;;;;;;;1.75;0.57;;;39.30;34.20;;;;;;6192218;23;20486;-71
2023/08/09 11:01:54;;;;;;;1.70;0.65;;;39.50;39.00;;;;;;6182078;23;20903;-71
2023/08/09 11:04:20;;;;;;;1.23;0.60;;;39.70;35.00;;;;;;6189065;23;20001;-71
2023/08/09 11:06:49;;;;;;;0.70;0.50;;;39.10;35.70;;;;;;6190279;23;20012;-71
2023/08/09 11:09:17;;;;;;;0.95;0.50;;;38.20;37.40;;;;;;6192413;23;20015;-71
2023/08/09 11:11:46;;;;;;;0.80;0.63;;;37.50;35.20;;;;;;6196750;23;20001;-71
2023/08/09 11:14:13;;;;;;;1.98;0.70;;;36.20;37.30;;;;;;6195788;23;20486;-71
2023/08/09 11:16:39;;;;;;;0.98;0.60;;;34.30;39.90;;;;;;6196005;23;20461;-71
2023/08/09 11:19:10;;;;;;;2.05;0.75;;;32.70;43.10;;;;;;6195619;23;20020;-71
2023/08/09 11:21:44;;;;;;;1.52;0.80;;;31.60;46.60;;;;;;6192019;23;20015;-71
2023/08/09 11:24:12;;;;;;;1.48;0.93;;;30.70;47.50;;;;;;6185110;23;20015;-70
2023/08/09 11:26:44;;;;;;;0.90;0.80;;;30.10;45.80;;;;;;6188705;23;20007;-70
2023/08/09 11:29:10;;;;;;;1.65;0.70;;;30.10;48.20;;;;;;6189671;23;20077;-71
2023/08/09 11:31:41;;;;;;;2.08;1.13;;;29.90;45.60;;;;;;6192029;23;20411;-69
2023/08/09 11:34:07;;;;;;;2.13;0.82;;;29.80;50.30;;;;;;6192408;23;20012;-69
2023/08/09 11:36:33;;;;;;;1.83;0.80;;;29.30;51.40;;;;;;6192168;23;20079;-69
2023/08/09 11:38:59;;;;;;;1.63;0.90;;;29.20;49.20;;;;;;6190824;23;20019;-69
2023/08/09 11:41:27;;;;;;;2.35;0.90;;;29.10;49.80;;;;;;6190110;23;20421;-69
2023/08/09 11:43:54;;;;;;;1.45;0.70;;;29.40;51.20;;;;;;6191670;23;20028;-69
2023/08/09 11:46:23;;;;;;;1.42;0.95;;;29.30;51.70;;;;;;6192444;23;20310;-69
2023/08/09 11:48:53;;;;;;;1.20;0.88;;;29.20;50.90;;;;;;6191910;23;20364;-69
2023/08/09 11:51:20;;;;;;;1.83;0.90;;;28.90;49.80;;;;;;6192868;23;20012;-69
2023/08/09 11:53:50;;;;;;;1.58;0.90;;;28.50;53.30;;;;;;6163249;23;20019;-69
2023/08/09 11:56:23;;;;;;;2.95;0.80;;;28.00;52.00;;;;;;6187645;23;20455;-69
2023/08/09 11:58:52;;;;;;;1.75;0.80;;;27.80;55.80;;;;;;6187626;23;20021;-69
2023/08/09 12:01:23;;;;;;;3.70;1.00;;;27.60;56.00;;;;;;6191241;23;20016;-69
2023/08/09 12:03:59;;;;;;;2.95;0.90;;;27.30;55.50;;;;;;6190326;23;20004;-69
2023/08/09 12:06:40;;;;;;;2.33;0.85;;;27.70;64.40;;;;;;6161724;23;20400;-72
2023/08/09 12:09:31;;;;;;;3.30;1.00;;;28.60;59.20;;;;;;6186874;23;20012;-71
2023/08/09 12:12:10;;;;;;;1.70;0.93;;;29.10;58.30;;;;;;6191064;23;20480;-71
2023/08/09 12:14:44;;;;;;;1.73;0.90;;;29.10;52.10;;;;;;6191588;23;20011;-71
2023/08/09 12:17:24;;;;;;;1.40;0.80;;;29.20;55.00;;;;;;6167152;23;20009;-71
2023/08/09 12:19:51;;;;;;;2.97;1.20;;;29.20;53.60;;;;;;6193285;23;20321;-71
2023/08/09 12:22:17;;;;;;;2.30;0.80;;;29.10;54.20;;;;;;6196525;23;20016;-70
2023/08/09 12:24:43;;;;;;;2.08;0.77;;;29.20;60.80;;;;;;6165329;23;20405;-71
2023/08/09 12:27:09;;;;;;;2.75;0.93;;;29.10;55.50;;;;;;6187099;23;20458;-71
2023/08/09 12:29:35;;;;;;;1.58;0.73;;;29.20;56.40;;;;;;6192406;23;20092;-71
2023/08/09 12:32:01;;;;;;;1.58;0.77;;;29.20;61.30;;;;;;6195366;23;20437;-71
2023/08/09 12:34:27;;;;;;;1.27;0.90;;;28.40;54.20;;;;;;6194320;23;20487;-71
2023/08/09 12:36:53;;;;;;;1.98;1.10;;;28.00;57.80;;;;;;6196059;23;20005;-71
2023/08/09 12:39:20;;;;;;;3.72;1.00;;;27.40;61.30;;;;;;6195727;23;20036;-71
2023/08/09 12:41:46;;;;;;;2.70;0.90;;;27.20;65.30;;;;;;6195645;23;20452;-71
2023/08/09 12:44:12;;;;;;;1.80;0.90;;;26.70;66.60;;;;;;6192150;23;20027;-71
2023/08/09 12:46:39;;;;;;;2.88;1.00;;;27.00;68.70;;;;;;6189756;23;20113;-71